Stegall, Nebraska
Current Conditions -  °F | °C
As of 5:53 PM on Monday 22 Dec 2014 (Local Time) from KBFF Reporting Station
Clear Clear  
Wind Chill: 20°   Ceiling: Unl
Heat Index: 32°   Visibility: 10mi
Dew Point: 24°   Wind: 20mph
Humidity: 73%   Direction: 300°WNW
Pressure: 29.7"   Gusts: NA
Location:  41.9727°N, 103.904°W
Report Text: KBFF 230053Z AUTO 30017KT 10SM CLR 00/M04 A2970 RMK AO2 PK WND 30026/0015 SLP074 T00001044
Loading
Personal Weather Stations






























Interactive Weather Map New forecast layout! Learn more

10-Day Weather Forecast

Advertisements
Track Severe Weather on mobile